createdAt,value
2022-11-17T00:05:00.247Z,18.5
2022-11-17T00:10:02.841Z,18.3
2022-11-17T00:15:05.169Z,18.8
2022-11-17T00:20:07.296Z,19.3
2022-11-17T00:25:10.576Z,19.9
2022-11-17T00:30:12.606Z,20.5
2022-11-17T00:35:19.660Z,19.6
2022-11-17T00:40:21.722Z,18.9
2022-11-17T00:45:23.801Z,19.3
2022-11-17T00:50:25.963Z,18.4
2022-11-17T00:55:28.334Z,19.2
2022-11-17T01:00:30.842Z,17.9
2022-11-17T01:05:34.186Z,19.2
2022-11-17T01:10:36.393Z,19.6
2022-11-17T01:15:38.628Z,19.4
2022-11-17T01:20:40.795Z,19.2
2022-11-17T01:25:42.838Z,18.8
2022-11-17T01:30:44.819Z,18.5
2022-11-17T01:35:46.807Z,17.8
2022-11-17T01:40:48.872Z,18.3
2022-11-17T01:45:50.977Z,17.8
2022-11-17T01:50:52.974Z,17.6
2022-11-17T01:55:54.941Z,17.5
2022-11-17T02:00:57.132Z,16.8
2022-11-17T02:05:59.250Z,16.5
2022-11-17T02:11:01.175Z,17.7
2022-11-17T02:16:03.281Z,18.2
2022-11-17T02:21:05.269Z,19.6
2022-11-17T02:26:09.887Z,19.3
2022-11-17T02:31:12.191Z,18.7
2022-11-17T02:36:14.280Z,19.6
2022-11-17T02:41:16.423Z,21.7
2022-11-17T02:46:18.464Z,19.3
2022-11-17T02:51:20.762Z,21.1
2022-11-17T02:56:22.743Z,21.4
2022-11-17T03:01:25.025Z,21.8
2022-11-17T03:06:27.513Z,21.5
2022-11-17T03:11:30.063Z,31.2
2022-11-17T03:16:30.559Z,21.3
2022-11-17T03:21:32.740Z,21.3
2022-11-17T03:26:34.765Z,20.8
2022-11-17T03:31:36.780Z,20.3
2022-11-17T03:36:39.246Z,21
2022-11-17T03:41:41.620Z,31.4
2022-11-17T03:46:42.101Z,21.9
2022-11-17T03:51:44.168Z,22.1
2022-11-17T03:56:46.204Z,20.2
2022-11-17T04:01:48.409Z,21.7
2022-11-17T04:06:50.743Z,20.4
2022-11-17T04:11:53.113Z,20.5
2022-11-17T04:16:55.196Z,20.4
2022-11-17T04:21:57.250Z,20
2022-11-17T04:26:59.303Z,20.7
2022-11-17T04:32:01.583Z,21.1
2022-11-17T04:37:09.075Z,22.2
2022-11-17T04:42:11.312Z,22.2
2022-11-17T04:47:13.608Z,21.3
2022-11-17T04:52:15.688Z,21
2022-11-17T04:57:17.698Z,21.5
2022-11-17T05:02:19.977Z,22.6
2022-11-17T05:07:22.403Z,21.8
2022-11-17T05:12:25.025Z,22.2
2022-11-17T05:17:27.133Z,22.1
2022-11-17T05:22:29.154Z,21.9
2022-11-17T05:27:31.146Z,21.6
2022-11-17T05:32:33.188Z,21.4
2022-11-17T05:37:35.274Z,21.7
2022-11-17T05:42:37.392Z,20.5
2022-11-17T05:47:39.767Z,20.9
2022-11-17T05:52:41.823Z,22.3
2022-11-17T05:57:44.039Z,20.4
2022-11-17T06:02:46.060Z,20.2
2022-11-17T06:07:47.962Z,20.5
2022-11-17T06:12:50.012Z,19.6
2022-11-17T06:17:51.904Z,19.2
2022-11-17T06:22:53.907Z,18.6
2022-11-17T06:27:55.927Z,18.6
2022-11-17T06:32:58.017Z,18
2022-11-17T06:38:00.094Z,17.1
2022-11-17T06:43:02.561Z,17.3
2022-11-17T06:48:04.831Z,16.5
2022-11-17T06:53:06.862Z,16
2022-11-17T06:58:09.132Z,16.2
2022-11-17T07:03:11.361Z,16.3
2022-11-17T07:08:13.614Z,17.4
2022-11-17T07:13:16.020Z,17.5
2022-11-17T07:18:18.309Z,16.7
2022-11-17T07:23:20.591Z,17.1
2022-11-17T07:28:22.774Z,16.6
2022-11-17T07:33:25.212Z,15
2022-11-17T07:38:27.428Z,15.4
2022-11-17T07:43:29.721Z,14.9
2022-11-17T07:48:32.200Z,15.7
2022-11-17T07:53:35.902Z,17.5
2022-11-17T07:58:40.140Z,10.4
2022-11-17T08:03:42.954Z,11.1
2022-11-17T08:08:45.565Z,11
2022-11-17T08:13:47.814Z,11.5
2022-11-17T08:18:53.497Z,12.2
2022-11-17T08:23:56.194Z,12.2
2022-11-17T08:28:59.884Z,11.9
2022-11-17T08:34:02.374Z,11.9
2022-11-17T08:39:04.599Z,11.4
2022-11-17T08:44:07.047Z,11.9
2022-11-17T08:49:09.649Z,11.7
2022-11-17T08:54:15.313Z,11.4
2022-11-17T08:59:17.591Z,10.2
2022-11-17T09:04:19.839Z,10.2
2022-11-17T09:09:22.071Z,8.9
2022-11-17T09:14:24.602Z,9.2
2022-11-17T09:19:26.774Z,8.1
2022-11-17T09:24:28.972Z,7.8
2022-11-17T09:29:31.032Z,8
2022-11-17T09:34:33.103Z,8
2022-11-17T09:39:35.342Z,8.3
2022-11-17T09:44:37.894Z,8.4
2022-11-17T09:49:39.941Z,8
2022-11-17T09:54:42.569Z,7.1
2022-11-17T09:59:45.657Z,7.2
2022-11-17T10:04:47.732Z,6.7
2022-11-17T10:09:49.920Z,6.6
2022-11-17T10:14:52.021Z,6.4
2022-11-17T10:19:54.225Z,5.9
2022-11-17T10:24:56.538Z,6.2
2022-11-17T10:29:58.704Z,5.4
2022-11-17T10:35:01.382Z,5
2022-11-17T10:40:04.398Z,4.4
2022-11-17T10:45:07.169Z,3.8
2022-11-17T10:50:09.468Z,3.8
2022-11-17T10:55:11.821Z,3.5
2022-11-17T11:00:13.896Z,3.5
2022-11-17T11:05:16.149Z,3.6
2022-11-17T11:10:18.532Z,3.6
2022-11-17T11:15:21.132Z,3.6
2022-11-17T11:20:23.385Z,4
2022-11-17T11:25:25.703Z,3.9
2022-11-17T11:30:28.033Z,3.6
2022-11-17T11:35:30.142Z,3.4
2022-11-17T11:40:32.286Z,3.6
2022-11-17T11:45:34.579Z,3.6
2022-11-17T11:50:42.492Z,4.1
2022-11-17T11:55:44.781Z,3.7
2022-11-17T12:00:47.230Z,3.6
2022-11-17T12:05:49.313Z,3.8
2022-11-17T12:10:51.376Z,3.9
2022-11-17T12:15:53.455Z,3.6
2022-11-17T12:20:55.536Z,4.1
2022-11-17T12:26:00.208Z,3.9
2022-11-17T12:31:10.492Z,5.2
2022-11-17T12:36:02.882Z,4.3
2022-11-17T12:41:05.098Z,5.6
2022-11-17T12:46:07.404Z,4.1
2022-11-17T12:51:09.757Z,3.8
2022-11-17T12:56:12.420Z,4.7
2022-11-17T13:01:14.592Z,4.9
2022-11-17T13:06:46.968Z,3.6
2022-11-17T13:11:19.185Z,4.8
2022-11-17T13:16:21.578Z,6.8
2022-11-17T13:21:23.676Z,4.1
2022-11-17T13:26:25.696Z,3.8
2022-11-17T13:31:27.821Z,4.1
2022-11-17T13:36:29.973Z,4.1
2022-11-17T13:41:32.113Z,4.8
2022-11-17T13:46:34.902Z,5.3
2022-11-17T13:51:37.156Z,5.4
2022-11-17T13:56:39.829Z,5.2
2022-11-17T14:01:42.175Z,5.5
2022-11-17T14:06:44.897Z,5.2
2022-11-17T14:11:47.315Z,5.7
2022-11-17T14:16:49.642Z,6.3
2022-11-17T14:21:52.531Z,7
2022-11-17T14:26:55.092Z,7.1
2022-11-17T14:31:57.566Z,7.5
2022-11-17T14:36:59.656Z,7.6
2022-11-17T14:42:01.965Z,7.8
2022-11-17T14:47:04.447Z,8.7
2022-11-17T14:52:06.797Z,8.5
2022-11-17T14:57:08.951Z,8.5
2022-11-17T15:02:11.061Z,8.7
2022-11-17T15:07:13.523Z,8.7
2022-11-17T15:12:15.925Z,8.4
2022-11-17T15:17:18.029Z,8.9
2022-11-17T15:22:20.253Z,9
2022-11-17T15:27:22.519Z,9.5
2022-11-17T15:32:24.818Z,9.4
2022-11-17T15:37:26.938Z,10.5
2022-11-17T15:42:29.504Z,10.7
2022-11-17T15:47:32.707Z,11.2
2022-11-17T15:53:04.879Z,12.3
2022-11-17T15:57:37.860Z,12.6
2022-11-17T16:02:40.139Z,13.6
2022-11-17T16:07:42.379Z,12.3
2022-11-17T16:12:44.746Z,12.5
2022-11-17T16:17:46.992Z,12
2022-11-17T16:22:49.268Z,13
2022-11-17T16:27:51.478Z,13.1
2022-11-17T16:32:53.535Z,13.3
2022-11-17T16:37:56.127Z,14.5
2022-11-17T16:42:58.356Z,15.3
2022-11-17T16:48:00.660Z,16.1
2022-11-17T16:53:04.143Z,15.1
2022-11-17T16:58:06.491Z,16.8
2022-11-17T17:03:08.903Z,15.7
2022-11-17T17:08:11.370Z,16.1
2022-11-17T17:13:13.599Z,17.4
2022-11-17T17:18:15.996Z,17.6
2022-11-17T17:23:18.273Z,17.5
2022-11-17T17:28:20.614Z,19.6
2022-11-17T17:33:23.033Z,19.6
2022-11-17T17:38:25.274Z,19.3
2022-11-17T17:43:27.419Z,17.7
2022-11-17T17:48:29.755Z,16.6
2022-11-17T17:53:31.992Z,15.3
2022-11-17T17:58:34.143Z,15.6
2022-11-17T18:03:36.366Z,14.9
2022-11-17T18:08:39.032Z,14.4
2022-11-17T18:13:41.363Z,14.6
2022-11-17T18:18:43.487Z,13.6
2022-11-17T18:23:45.574Z,13.4
2022-11-17T18:28:47.792Z,12.8
2022-11-17T18:33:50.075Z,12.8
2022-11-17T18:38:52.173Z,12.5
2022-11-17T18:43:54.404Z,13.4
2022-11-17T18:48:56.767Z,13.7
2022-11-17T18:53:59.517Z,14.4
2022-11-17T18:59:02.004Z,14.1
2022-11-17T19:04:04.229Z,14.6
2022-11-17T19:09:09.237Z,15.1
2022-11-17T19:14:11.473Z,14.1
2022-11-17T19:19:15.241Z,14.7
2022-11-17T19:24:18.625Z,14.7
2022-11-17T19:29:21.301Z,14.7
2022-11-17T19:34:24.735Z,14.5
2022-11-17T19:39:27.232Z,14.1
2022-11-17T19:44:29.940Z,14.2
2022-11-17T19:49:33.183Z,13.5
2022-11-17T19:54:35.225Z,13.7
2022-11-17T19:59:37.435Z,14.2
2022-11-17T20:04:39.855Z,14.6
2022-11-17T20:09:41.913Z,14
2022-11-17T20:14:44.166Z,15.5
2022-11-17T20:19:46.303Z,15.1
2022-11-17T20:24:48.858Z,14.5
2022-11-17T20:29:50.970Z,14.9
2022-11-17T20:34:53.383Z,15.2
2022-11-17T20:39:55.933Z,14.9
2022-11-17T20:44:58.596Z,14.6
2022-11-17T20:50:01.265Z,14.8
2022-11-17T20:55:04.257Z,14.5
2022-11-17T21:00:14.795Z,15.1
2022-11-17T21:05:16.334Z,14.9
2022-11-17T21:10:21.770Z,15.9
2022-11-17T21:15:26.395Z,16.9
2022-11-17T21:20:35.109Z,16.8
2022-11-17T21:25:32.148Z,17
2022-11-17T21:30:49.231Z,17.2
2022-11-17T21:35:44.273Z,17.6
2022-11-17T21:40:53.825Z,17.9
2022-11-17T21:45:59.827Z,18.5
2022-11-17T21:51:02.830Z,19.1
2022-11-17T21:56:05.617Z,18.6
2022-11-17T22:01:08.082Z,18.3
2022-11-17T22:06:10.657Z,18.9
2022-11-17T22:11:12.839Z,19.1
2022-11-17T22:16:15.006Z,18.8
2022-11-17T22:21:17.184Z,19.3
2022-11-17T22:26:19.697Z,18.7
2022-11-17T22:31:21.877Z,19.9
2022-11-17T22:36:23.975Z,20.6
2022-11-17T22:41:26.166Z,20.4
2022-11-17T22:46:28.365Z,19.9
2022-11-17T22:51:30.839Z,20.8
2022-11-17T22:56:33.039Z,20.2
2022-11-17T23:01:35.524Z,22.1
2022-11-17T23:06:38.112Z,21.9
2022-11-17T23:11:39.824Z,21
2022-11-17T23:16:42.191Z,20.9
2022-11-17T23:21:44.310Z,20.6
2022-11-17T23:26:47.653Z,21
2022-11-17T23:31:49.821Z,21.9
2022-11-17T23:36:52.044Z,21.4
2022-11-17T23:41:54.211Z,22.2
2022-11-17T23:46:56.426Z,23
2022-11-17T23:51:58.605Z,24
2022-11-17T23:57:00.852Z,23.7
